Time;durP1;ratioP1;P1;durP2;ratioP2;P2;SDS_P1;SDS_P2;PMS_P1;PMS_P2;Temp;Humidity;BMP_temperature;BMP_pressure;BME280_temperature;BME280_humidity;BME280_pressure;Samples;Min_cycle;Max_cycle;Signal;HPM_P1;HPM_P2
2023/07/09 00:07:04;;;;;;;9.10;6.77;;;;;;;18.77;53.92;100541.56;30861275;28;97374;-68
2023/07/09 00:22:16;;;;;;;10.87;7.90;;;;;;;18.53;55.22;100548.53;30859427;28;96851;-68
2023/07/09 00:37:19;;;;;;;12.13;7.90;;;;;;;18.34;56.11;100544.88;30858003;28;97188;-67
2023/07/09 00:52:29;;;;;;;13.53;7.70;;;;;;;18.19;56.87;100543.28;30857101;28;96765;-68
2023/07/09 01:07:30;;;;;;;12.17;8.27;;;;;;;18.02;57.95;100544.75;30855817;28;97929;-67
2023/07/09 01:22:32;;;;;;;15.93;8.20;;;;;;;17.75;58.79;100547.47;30854611;28;97412;-67
2023/07/09 01:37:34;;;;;;;;;;;;;;;17.37;59.55;100550.78;30854564;28;96560;-66
2023/07/09 01:52:35;;;;;;;13.90;8.63;;;;;;;17.14;60.51;100552.03;30872754;28;99272;-73
2023/07/09 02:07:36;;;;;;;11.40;7.80;;;;;;;16.94;61.43;100556.53;30872888;28;97438;-72
2023/07/09 02:22:37;;;;;;;16.45;8.63;;;;;;;16.82;62.18;100550.88;30871059;28;98025;-72
2023/07/09 02:37:38;;;;;;;12.03;8.23;;;;;;;16.76;62.84;100574.03;30870117;28;96769;-69
2023/07/09 02:52:39;;;;;;;12.77;8.52;;;;;;;16.64;63.76;100564.88;30868254;28;96887;-67
2023/07/09 03:07:39;;;;;;;17.97;9.13;;;;;;;16.70;64.01;100577.53;30867284;28;96964;-67
2023/07/09 03:22:40;;;;;;;10.63;7.30;;;;;;;16.88;64.08;100575.09;30864263;28;98726;-67
2023/07/09 03:37:40;;;;;;;12.38;8.52;;;;;;;17.08;63.71;100585.13;30863163;28;114106;-67
2023/07/09 03:52:40;;;;;;;11.02;8.60;;;;;;;17.20;64.24;100582.66;30861390;28;105400;-67
2023/07/09 04:07:41;;;;;;;10.75;8.18;;;;;;;17.47;63.73;100578.16;30859391;28;96809;-67
2023/07/09 04:22:41;;;;;;;11.05;7.70;;;;;;;17.88;63.35;100585.19;30858892;28;97117;-67
2023/07/09 04:37:42;;;;;;;9.77;7.63;;;;;;;18.19;62.75;100605.28;30858170;28;103167;-67
2023/07/09 04:52:42;;;;;;;9.80;6.90;;;;;;;18.57;62.33;100615.31;30856633;28;97473;-67
2023/07/09 05:07:43;;;;;;;10.55;6.88;;;;;;;19.13;61.59;100623.03;30855512;28;96714;-66
2023/07/09 05:22:43;;;;;;;11.15;7.38;;;;;;;19.97;59.74;100614.75;30852753;28;96788;-67
2023/07/09 05:37:43;;;;;;;10.30;7.28;;;;;;;20.73;57.72;100627.06;30853075;28;96790;-66
2023/07/09 05:52:44;;;;;;;11.03;7.00;;;;;;;21.35;55.73;100626.03;30849344;28;112542;-70
2023/07/09 06:07:44;;;;;;;9.80;7.17;;;;;;;22.01;54.08;100620.63;30850480;28;110499;-71
2023/07/09 06:22:44;;;;;;;10.37;6.73;;;;;;;22.98;51.85;100631.94;30850151;28;96964;-72
2023/07/09 06:37:44;;;;;;;;;;;;;;;23.93;49.01;100629.53;30867798;28;96755;-70
2023/07/09 06:52:45;;;;;;;9.03;5.40;;;;;;;24.71;46.44;100630.63;30869114;28;97208;-68
2023/07/09 07:07:45;;;;;;;7.22;5.32;;;;;;;25.52;44.39;100632.59;30866728;28;96720;-69
2023/07/09 07:22:46;;;;;;;7.15;5.10;;;;;;;26.25;42.19;100629.31;30863790;28;107019;-69
2023/07/09 07:37:48;;;;;;;6.50;4.60;;;;;;;27.14;40.54;100614.91;30862803;28;96707;-70
2023/07/09 07:52:49;;;;;;;7.07;4.93;;;;;;;28.31;38.20;100607.75;30861748;28;96680;-68
2023/07/09 08:07:49;;;;;;;8.17;4.57;;;;;;;29.32;37.00;100614.94;30859778;28;97352;-68
2023/07/09 08:22:50;;;;;;;6.40;4.80;;;;;;;30.78;34.27;100634.34;30858326;28;96686;-69
2023/07/09 08:37:50;;;;;;;8.48;4.95;;;;;;;32.02;33.24;100631.31;30857359;28;97478;-68
2023/07/09 08:52:55;;;;;;;6.82;4.78;;;;;;;32.68;31.12;100628.38;30852223;28;103386;-70
2023/07/09 09:08:12;;;;;;;4.97;3.50;;;;;;;33.51;29.09;100629.28;30853602;28;98022;-68
2023/07/09 09:23:15;;;;;;;7.40;3.67;;;;;;;34.46;27.59;100619.84;30854403;28;97542;-68
2023/07/09 09:38:17;;;;;;;9.33;3.73;;;;;;;35.23;25.92;100622.22;30853081;28;96831;-68
2023/07/09 09:53:21;;;;;;;4.67;3.40;;;;;;;35.44;23.59;100618.78;30851211;28;96705;-72
2023/07/09 10:08:49;;;;;;;5.30;3.30;;;;;;;35.65;22.40;100630.81;30863319;28;97626;-74
2023/07/09 10:24:16;;;;;;;4.63;2.73;;;;;;;36.58;21.44;100628.31;30870516;28;96779;-68
2023/07/09 10:39:24;;;;;;;4.93;3.07;;;;;;;37.04;19.41;100614.59;30868375;28;98610;-67
2023/07/09 10:54:56;;;;;;;5.47;2.80;;;;;;;37.21;19.53;100607.25;30866756;28;98706;-68
2023/07/09 11:09:59;;;;;;;3.80;2.83;;;;;;;37.35;18.57;100615.34;30864173;28;97312;-67
2023/07/09 11:25:10;;;;;;;5.80;2.70;;;;;;;37.35;19.07;100607.00;30861863;28;97524;-67
2023/07/09 11:40:13;;;;;;;4.03;3.03;;;;;;;37.41;18.80;100587.00;30861240;28;98508;-67
2023/07/09 11:55:41;;;;;;;5.50;3.13;;;;;;;37.73;18.39;100589.28;30860678;28;97593;-68
2023/07/09 12:10:43;;;;;;;3.80;2.97;;;;;;;37.40;18.79;100567.88;30860557;28;96731;-67
2023/07/09 12:25:48;;;;;;;4.60;2.70;;;;;;;37.70;18.72;100568.53;30856702;28;96850;-68
2023/07/09 12:40:50;;;;;;;7.10;3.33;;;;;;;37.36;18.88;100544.72;30855597;28;96826;-67
2023/07/09 12:55:53;;;;;;;4.27;2.83;;;;;;;37.05;18.46;100537.69;30855756;28;96900;-68
2023/07/09 13:10:54;;;;;;;3.63;2.70;;;;;;;36.37;18.64;100545.06;30854639;28;96895;-68
2023/07/09 13:25:56;;;;;;;5.55;3.13;;;;;;;35.89;18.74;100519.38;30853493;28;97399;-67
2023/07/09 13:41:00;;;;;;;4.07;2.93;;;;;;;35.16;18.94;100508.34;30862628;28;97387;-72
2023/07/09 13:56:00;;;;;;;4.23;3.07;;;;;;;34.63;19.83;100510.38;30872125;28;96793;-72
2023/07/09 14:11:01;;;;;;;3.90;2.85;;;;;;;34.31;19.05;100513.28;30871591;28;96512;-73
2023/07/09 14:26:01;;;;;;;5.05;2.85;;;;;;;33.95;19.67;100500.47;30868984;28;114909;-70
2023/07/09 14:41:17;;;;;;;4.53;2.70;;;;;;;33.43;19.94;100497.50;30868074;28;96975;-72
2023/07/09 14:56:18;;;;;;;4.33;2.30;;;;;;;33.23;20.03;100485.81;30865577;28;97385;-67
2023/07/09 15:11:18;;;;;;;5.18;2.60;;;;;;;32.98;20.60;100485.34;30864838;28;113421;-68
2023/07/09 15:26:18;;;;;;;4.07;2.55;;;;;;;32.71;20.78;100473.34;30862246;28;102636;-69
2023/07/09 15:41:19;;;;;;;3.70;2.55;;;;;;;32.40;20.68;100460.22;30861468;28;96846;-70
2023/07/09 15:56:29;;;;;;;4.05;2.50;;;;;;;32.13;20.14;100460.28;30861598;28;96749;-68
2023/07/09 16:11:30;;;;;;;6.40;3.23;;;;;;;31.90;20.25;100451.94;30858960;28;97531;-68
2023/07/09 16:26:31;;;;;;;6.28;2.92;;;;;;;31.59;20.44;100446.22;30857333;28;97412;-67
2023/07/09 16:41:32;;;;;;;5.53;3.30;;;;;;;31.24;20.79;100438.34;30855458;28;97205;-76
2023/07/09 16:56:32;;;;;;;5.45;3.42;;;;;;;31.56;20.90;100442.13;30784632;28;97540;-73
2023/07/09 17:11:33;;;;;;;4.20;2.78;;;;;;;32.02;20.22;100437.66;30721089;28;101442;-72
2023/07/09 17:26:33;;;;;;;4.25;2.60;;;;;;;31.46;22.57;100439.59;30720464;28;97067;-69
2023/07/09 17:41:33;;;;;;;7.63;2.42;;;;;;;31.17;23.74;100435.19;30719003;28;109413;-71
2023/07/09 17:56:34;;;;;;;5.25;2.70;;;;;;;30.63;24.97;100420.94;30720049;28;96835;-67
2023/07/09 18:11:37;;;;;;;5.45;2.78;;;;;;;30.23;25.98;100418.47;30720005;28;96857;-72
2023/07/09 18:26:37;;;;;;;5.60;2.87;;;;;;;29.70;26.76;100412.03;30805351;28;96904;-67
2023/07/09 18:41:38;;;;;;;4.50;2.70;;;;;;;29.10;27.45;100425.25;30858751;28;97672;-67
2023/07/09 18:56:38;;;;;;;7.43;2.80;;;;;;;28.26;29.40;100437.94;30754948;28;96919;-69
2023/07/09 19:11:38;;;;;;;8.32;3.35;;;;;;;27.48;31.16;100466.69;30734745;28;97857;-71
2023/07/09 19:26:39;;;;;;;6.90;2.65;;;;;;;26.82;33.35;100484.75;30732798;28;112869;-72
2023/07/09 19:41:39;;;;;;;8.15;3.50;;;;;;;26.34;34.30;100504.84;30730818;28;112007;-70
2023/07/09 19:56:42;;;;;;;8.60;4.00;;;;;;;25.93;35.92;100496.44;30728528;28;104705;-67
2023/07/09 20:11:50;;;;;;;13.67;4.30;;;;;;;25.59;37.49;100515.91;30728581;28;97269;-70
2023/07/09 20:26:51;;;;;;;9.87;4.10;;;;;;;25.12;38.64;100500.25;30726858;28;97651;-70
2023/07/09 20:41:51;;;;;;;7.20;4.13;;;;;;;24.67;39.28;100508.56;30723559;28;97085;-67
2023/07/09 20:56:55;;;;;;;12.60;4.13;;;;;;;24.40;39.94;100507.66;30719772;28;97629;-71
2023/07/09 21:11:56;;;;;;;11.37;4.27;;;;;;;24.04;41.68;100509.97;30808004;28;97839;-71
2023/07/09 21:26:58;;;;;;;11.25;5.53;;;;;;;23.83;42.32;100515.09;30852217;28;97519;-68
2023/07/09 21:41:58;;;;;;;9.10;5.70;;;;;;;24.24;41.95;100509.41;30853543;28;97311;-68
2023/07/09 21:56:59;;;;;;;11.75;6.03;;;;;;;24.22;42.60;100506.94;30856930;28;97500;-69
2023/07/09 22:12:01;;;;;;;12.27;5.83;;;;;;;24.08;43.11;100522.81;30873330;28;96720;-67
2023/07/09 22:27:02;;;;;;;11.90;5.77;;;;;;;24.03;43.71;100520.03;30871501;28;97404;-70
2023/07/09 22:42:03;;;;;;;11.33;6.07;;;;;;;23.60;45.12;100505.25;30870437;28;97418;-68
2023/07/09 22:57:04;;;;;;;11.38;5.40;;;;;;;23.24;45.45;100500.09;30868693;28;96787;-70
2023/07/09 23:12:05;;;;;;;7.60;5.73;;;;;;;22.34;46.41;100521.50;30866391;28;96987;-69
2023/07/09 23:27:15;;;;;;;10.63;6.10;;;;;;;21.29;48.45;100507.72;30865991;28;97483;-66
2023/07/09 23:42:15;;;;;;;8.17;5.77;;;;;;;20.66;50.04;100498.25;30864451;28;97023;-68
2023/07/09 23:57:16;;;;;;;11.10;6.03;;;;;;;20.09;51.11;100505.63;30863089;28;96712;-66
